createdAt,value
2023-01-23T00:01:21.545Z,8.10
2023-01-23T00:03:48.063Z,8.70
2023-01-23T00:06:16.861Z,8.00
2023-01-23T00:08:44.877Z,8.40
2023-01-23T00:11:15.492Z,8.00
2023-01-23T00:13:42.012Z,9.00
2023-01-23T00:16:14.704Z,8.60
2023-01-23T00:18:41.467Z,9.40
2023-01-23T00:21:11.079Z,8.40
2023-01-23T00:23:37.737Z,7.90
2023-01-23T00:26:05.094Z,8.60
2023-01-23T00:28:32.119Z,8.40
2023-01-23T00:31:07.067Z,8.70
2023-01-23T00:33:33.725Z,8.60
2023-01-23T00:36:00.751Z,6.70
2023-01-23T00:38:27.577Z,8.40
2023-01-23T00:40:54.095Z,8.20
2023-01-23T00:43:21.030Z,7.80
2023-01-23T00:45:47.611Z,8.10
2023-01-23T00:48:14.086Z,8.90
2023-01-23T00:50:40.755Z,8.00
2023-01-23T00:53:07.336Z,6.50
2023-01-23T00:55:33.800Z,8.00
2023-01-23T00:58:00.485Z,7.10
2023-01-23T01:00:27.198Z,7.60
2023-01-23T01:02:53.769Z,7.20
2023-01-23T01:05:20.273Z,8.40
2023-01-23T01:07:47.170Z,7.60
2023-01-23T01:10:14.420Z,7.60
2023-01-23T01:12:41.377Z,7.20
2023-01-23T01:15:09.066Z,7.70
2023-01-23T01:17:36.278Z,8.50
2023-01-23T01:20:05.278Z,7.70
2023-01-23T01:22:32.047Z,7.60
2023-01-23T01:24:58.645Z,8.40
2023-01-23T01:27:25.293Z,8.00
2023-01-23T01:29:51.804Z,6.70
2023-01-23T01:32:18.340Z,7.50
2023-01-23T01:34:44.840Z,8.20
2023-01-23T01:37:11.339Z,7.20
2023-01-23T01:39:37.823Z,6.90
2023-01-23T01:42:04.360Z,8.00
2023-01-23T01:44:53.094Z,7.00
2023-01-23T01:47:19.623Z,7.50
2023-01-23T01:49:46.213Z,7.90
2023-01-23T01:52:14.573Z,6.90
2023-01-23T01:54:53.401Z,6.00
2023-01-23T01:57:34.526Z,7.70
2023-01-23T02:00:16.208Z,7.50
2023-01-23T02:02:50.485Z,7.10
2023-01-23T02:05:21.585Z,7.30
2023-01-23T02:07:59.071Z,6.40
2023-01-23T02:10:25.691Z,7.40
2023-01-23T02:12:52.906Z,6.90
2023-01-23T02:15:21.579Z,7.10
2023-01-23T02:17:51.534Z,7.10
2023-01-23T02:20:23.425Z,7.30
2023-01-23T02:23:22.299Z,7.80
2023-01-23T02:25:52.897Z,6.90
2023-01-23T02:28:19.532Z,6.50
2023-01-23T02:30:46.453Z,7.70
2023-01-23T02:33:22.015Z,7.00
2023-01-23T02:35:48.498Z,6.80
2023-01-23T02:38:15.141Z,6.60
2023-01-23T02:40:42.688Z,6.90
2023-01-23T02:43:13.409Z,6.70
2023-01-23T02:45:39.939Z,7.10
2023-01-23T02:48:06.764Z,6.70
2023-01-23T02:50:33.686Z,6.70
2023-01-23T02:53:00.547Z,6.70
2023-01-23T02:55:27.151Z,6.50
2023-01-23T02:57:53.619Z,7.00
2023-01-23T03:00:20.823Z,5.80
2023-01-23T03:02:48.871Z,6.30
2023-01-23T03:05:16.344Z,6.20
2023-01-23T03:07:43.159Z,6.50
2023-01-23T03:10:11.446Z,6.40
2023-01-23T03:12:38.323Z,6.40
2023-01-23T03:15:05.395Z,6.50
2023-01-23T03:17:31.909Z,6.40
2023-01-23T03:19:58.379Z,6.00
2023-01-23T03:22:24.902Z,6.10
2023-01-23T03:24:51.372Z,6.30
2023-01-23T03:27:17.973Z,5.70
2023-01-23T03:29:44.576Z,5.60
2023-01-23T03:32:12.980Z,7.00
2023-01-23T03:34:39.831Z,6.10
2023-01-23T03:37:06.347Z,6.80
2023-01-23T03:39:32.795Z,7.00
2023-01-23T03:41:59.287Z,6.70
2023-01-23T03:44:25.755Z,6.20
2023-01-23T03:46:52.600Z,5.80
2023-01-23T03:49:19.539Z,5.70
2023-01-23T03:51:46.107Z,5.90
2023-01-23T03:54:12.645Z,5.50
2023-01-23T03:56:39.102Z,5.70
2023-01-23T03:59:05.714Z,5.60
2023-01-23T04:01:32.176Z,5.90
2023-01-23T04:03:58.784Z,5.40
2023-01-23T04:06:25.303Z,5.30
2023-01-23T04:08:51.873Z,5.60
2023-01-23T04:11:18.426Z,5.50
2023-01-23T04:13:44.874Z,5.80
2023-01-23T04:16:11.396Z,5.60
2023-01-23T04:18:38.021Z,5.30
2023-01-23T04:21:04.826Z,5.10
2023-01-23T04:23:31.823Z,5.20
2023-01-23T04:25:58.349Z,5.30
2023-01-23T04:28:25.111Z,5.30
2023-01-23T04:30:52.150Z,5.50
2023-01-23T04:33:19.796Z,4.70
2023-01-23T04:35:51.583Z,5.30
2023-01-23T04:38:18.103Z,4.70
2023-01-23T04:40:46.750Z,4.70
2023-01-23T04:43:14.481Z,5.00
2023-01-23T04:45:41.320Z,4.80
2023-01-23T04:48:07.888Z,5.00
2023-01-23T04:50:34.390Z,4.90
2023-01-23T04:53:01.568Z,5.00
2023-01-23T04:55:28.024Z,5.00
2023-01-23T04:57:55.086Z,5.30
2023-01-23T05:00:22.269Z,5.20
2023-01-23T05:02:50.309Z,4.50
2023-01-23T05:05:16.959Z,5.00
2023-01-23T05:07:44.432Z,5.50
2023-01-23T05:10:11.391Z,4.50
2023-01-23T05:12:37.957Z,4.60
2023-01-23T05:15:05.016Z,4.90
2023-01-23T05:17:31.527Z,4.90
2023-01-23T05:19:58.098Z,5.30
2023-01-23T05:22:24.701Z,4.50
2023-01-23T05:24:51.197Z,5.00
2023-01-23T05:27:17.957Z,4.80
2023-01-23T05:29:44.427Z,4.70
2023-01-23T05:32:11.546Z,5.50
2023-01-23T05:34:38.594Z,4.60
2023-01-23T05:37:05.138Z,4.30
2023-01-23T05:39:32.886Z,4.70
2023-01-23T05:41:59.475Z,4.80
2023-01-23T05:44:26.151Z,5.00
2023-01-23T05:46:52.618Z,4.80
2023-01-23T05:49:19.166Z,4.70
2023-01-23T05:51:45.656Z,5.60
2023-01-23T05:54:12.211Z,5.50
2023-01-23T05:56:38.690Z,6.00
2023-01-23T05:59:05.171Z,5.60
2023-01-23T06:01:31.658Z,6.30
2023-01-23T06:03:58.224Z,6.00
2023-01-23T06:06:24.820Z,5.60
2023-01-23T06:08:51.307Z,5.80
2023-01-23T06:11:17.799Z,6.00
2023-01-23T06:13:44.280Z,6.30
2023-01-23T06:16:11.005Z,6.00
2023-01-23T06:18:37.567Z,6.30
2023-01-23T06:21:04.319Z,6.30
2023-01-23T06:23:30.802Z,6.20
2023-01-23T06:26:02.399Z,6.30
2023-01-23T06:30:55.580Z,6.30
2023-01-23T06:33:22.179Z,5.60
2023-01-23T06:35:48.702Z,6.50
2023-01-23T06:38:15.208Z,6.90
2023-01-23T06:40:41.716Z,7.70
2023-01-23T06:43:08.208Z,7.60
2023-01-23T06:45:34.704Z,7.50
2023-01-23T06:48:01.222Z,6.50
2023-01-23T06:50:27.729Z,6.50
2023-01-23T06:52:54.221Z,5.30
2023-01-23T06:55:20.743Z,8.70
2023-01-23T06:57:47.233Z,7.60
2023-01-23T07:00:14.555Z,6.20
2023-01-23T07:02:41.237Z,7.40
2023-01-23T07:05:08.455Z,6.50
2023-01-23T07:07:35.094Z,5.40
2023-01-23T07:10:04.578Z,5.90
2023-01-23T07:12:31.117Z,4.80
2023-01-23T07:14:57.585Z,5.90
2023-01-23T07:17:24.101Z,6.00
2023-01-23T07:19:50.663Z,6.40
2023-01-23T07:22:21.511Z,4.80
2023-01-23T07:24:47.966Z,5.90
2023-01-23T07:27:14.999Z,5.00
2023-01-23T07:29:42.398Z,5.60
2023-01-23T07:32:11.040Z,5.70
2023-01-23T07:34:38.167Z,5.90
2023-01-23T07:37:04.726Z,5.80
2023-01-23T07:39:31.346Z,6.00
2023-01-23T07:41:57.899Z,6.60
2023-01-23T07:44:24.422Z,26.60
2023-01-23T07:46:51.022Z,8.10
2023-01-23T07:49:17.849Z,7.60
2023-01-23T07:51:44.357Z,8.00
2023-01-23T07:54:11.099Z,8.00
2023-01-23T07:56:37.599Z,7.40
2023-01-23T07:59:04.113Z,6.80
2023-01-23T08:01:30.587Z,7.10
2023-01-23T08:03:58.337Z,6.50
2023-01-23T08:06:24.887Z,6.20
2023-01-23T08:08:51.437Z,7.60
2023-01-23T08:11:18.925Z,8.30
2023-01-23T08:13:49.036Z,7.50
2023-01-23T08:16:16.014Z,10.30
2023-01-23T08:18:42.589Z,7.30
2023-01-23T08:21:10.141Z,6.00
2023-01-23T08:23:36.712Z,5.80
2023-01-23T08:26:06.854Z,5.30
2023-01-23T08:28:33.357Z,5.90
2023-01-23T08:31:01.523Z,6.00
2023-01-23T08:33:28.079Z,6.10
2023-01-23T08:35:56.675Z,5.40
2023-01-23T08:38:23.925Z,4.50
2023-01-23T08:40:52.034Z,4.40
2023-01-23T08:43:19.589Z,3.90
2023-01-23T08:45:50.063Z,3.70
2023-01-23T08:48:17.219Z,3.80
2023-01-23T08:50:44.007Z,3.90
2023-01-23T08:53:11.214Z,3.70
2023-01-23T08:55:37.850Z,3.70
2023-01-23T08:58:08.032Z,3.60
2023-01-23T09:00:35.009Z,3.80
2023-01-23T09:03:05.609Z,3.80
2023-01-23T09:05:32.398Z,3.50
2023-01-23T09:08:02.032Z,3.70
2023-01-23T09:10:28.895Z,3.80
2023-01-23T09:12:56.106Z,3.60
2023-01-23T09:15:22.571Z,3.20
2023-01-23T09:17:49.717Z,3.30
2023-01-23T09:20:16.864Z,4.20
2023-01-23T09:22:44.408Z,3.90
2023-01-23T09:25:11.783Z,3.80
2023-01-23T09:27:38.285Z,3.30
2023-01-23T09:30:05.450Z,3.40
2023-01-23T09:32:32.245Z,3.70
2023-01-23T09:34:58.763Z,3.70
2023-01-23T09:37:25.240Z,4.90
2023-01-23T09:39:51.931Z,4.10
2023-01-23T09:42:23.307Z,4.30
2023-01-23T09:45:26.808Z,3.60
2023-01-23T09:47:56.095Z,3.60
2023-01-23T09:50:29.573Z,3.70
2023-01-23T09:53:01.640Z,3.80
2023-01-23T09:55:44.678Z,4.30
2023-01-23T09:58:37.490Z,3.90
2023-01-23T10:01:04.175Z,3.90
2023-01-23T10:03:32.212Z,4.50
2023-01-23T10:06:23.669Z,3.60
2023-01-23T10:08:56.056Z,3.90
2023-01-23T10:11:54.716Z,4.10
2023-01-23T10:14:35.307Z,3.50
2023-01-23T10:17:07.459Z,4.60
2023-01-23T10:19:59.112Z,3.40
2023-01-23T10:22:34.875Z,3.80
2023-01-23T10:25:26.597Z,4.10
2023-01-23T10:28:00.122Z,4.70
2023-01-23T10:30:31.205Z,3.80
2023-01-23T10:33:00.976Z,4.30
2023-01-23T10:35:34.840Z,3.70
2023-01-23T10:38:12.534Z,3.50
2023-01-23T10:40:39.103Z,3.50
2023-01-23T10:43:20.460Z,3.40
2023-01-23T10:45:48.718Z,3.70
2023-01-23T10:48:33.814Z,3.40
2023-01-23T10:51:00.893Z,3.90
2023-01-23T10:53:27.974Z,3.70
2023-01-23T10:55:58.498Z,3.70
2023-01-23T10:58:33.445Z,3.90
2023-01-23T11:01:01.100Z,3.70
2023-01-23T11:03:33.723Z,3.80
2023-01-23T11:06:07.163Z,3.50
2023-01-23T11:08:50.146Z,3.70
2023-01-23T11:11:16.761Z,3.80
2023-01-23T11:13:45.937Z,3.80
2023-01-23T11:16:23.588Z,3.70
2023-01-23T11:19:03.432Z,3.90
2023-01-23T11:21:34.792Z,3.60
2023-01-23T11:24:39.165Z,4.00
2023-01-23T11:27:20.433Z,3.20
2023-01-23T11:29:52.943Z,3.80
2023-01-23T11:32:22.553Z,3.60
2023-01-23T11:34:56.589Z,3.30
2023-01-23T11:37:28.239Z,3.40
2023-01-23T11:40:02.999Z,3.90
2023-01-23T11:42:29.754Z,3.60
2023-01-23T11:44:59.343Z,3.60
2023-01-23T11:47:41.718Z,3.90
2023-01-23T11:50:17.810Z,3.70
2023-01-23T11:52:48.726Z,3.90
2023-01-23T11:55:53.440Z,3.50
2023-01-23T11:58:22.772Z,3.50
2023-01-23T12:01:04.880Z,3.70
2023-01-23T12:04:00.032Z,3.70
2023-01-23T12:06:38.733Z,3.70
2023-01-23T12:09:12.822Z,3.90
2023-01-23T12:12:00.866Z,3.80
2023-01-23T12:15:06.673Z,3.50
2023-01-23T12:17:47.287Z,3.60
2023-01-23T12:20:48.327Z,3.80
2023-01-23T12:23:27.243Z,3.40
2023-01-23T12:26:06.880Z,3.40
2023-01-23T12:28:42.635Z,4.00
2023-01-23T12:31:47.389Z,3.80
2023-01-23T12:34:32.635Z,3.80
2023-01-23T12:37:30.498Z,3.70
2023-01-23T12:40:03.736Z,4.00
2023-01-23T12:42:55.503Z,3.40
2023-01-23T12:45:24.907Z,4.00
2023-01-23T12:48:03.939Z,4.10
2023-01-23T12:50:42.606Z,3.90
2023-01-23T12:53:14.620Z,3.90
2023-01-23T12:55:46.881Z,3.50
2023-01-23T12:58:17.324Z,3.70
2023-01-23T13:00:50.208Z,3.70
2023-01-23T13:03:45.892Z,3.80
2023-01-23T13:06:27.786Z,4.60
2023-01-23T13:09:27.812Z,4.10
2023-01-23T13:12:23.662Z,4.10
2023-01-23T13:15:15.060Z,4.10
2023-01-23T13:20:38.189Z,3.90
2023-01-23T13:23:31.270Z,3.90
2023-01-23T13:26:16.455Z,3.90
2023-01-23T13:28:50.840Z,3.80
2023-01-23T13:31:34.647Z,4.10
2023-01-23T13:34:21.285Z,3.70
2023-01-23T13:36:49.220Z,4.10
2023-01-23T13:39:18.838Z,3.80
2023-01-23T13:41:50.277Z,3.80
2023-01-23T14:22:57.621Z,4.00
2023-01-23T14:25:25.082Z,4.10
2023-01-23T14:28:03.451Z,3.90
2023-01-23T14:30:29.980Z,3.30
2023-01-23T14:32:56.836Z,4.40
2023-01-23T14:35:24.018Z,4.30
2023-01-23T14:37:53.742Z,3.50
2023-01-23T14:40:27.642Z,4.20
2023-01-23T14:43:01.078Z,4.20
2023-01-23T14:45:33.626Z,4.00
2023-01-23T14:48:05.920Z,3.80
2023-01-23T14:50:34.027Z,4.10
2023-01-23T14:53:03.005Z,4.00
2023-01-23T14:55:31.656Z,3.90
2023-01-23T14:58:00.197Z,4.00
2023-01-23T15:00:28.690Z,3.90
2023-01-23T15:02:55.542Z,3.70
2023-01-23T15:05:24.888Z,4.10
2023-01-23T15:07:53.485Z,4.00
2023-01-23T15:10:22.264Z,4.00
2023-01-23T15:13:10.779Z,4.80
2023-01-23T15:15:38.238Z,4.40
2023-01-23T15:18:19.527Z,4.40
2023-01-23T15:21:02.898Z,6.30
2023-01-23T15:23:34.783Z,4.10
2023-01-23T15:26:19.634Z,4.10
2023-01-23T15:28:58.765Z,4.50
2023-01-23T15:31:40.388Z,3.90
2023-01-23T15:36:57.769Z,4.00
2023-01-23T15:39:24.350Z,4.00
2023-01-23T15:42:01.052Z,4.20
2023-01-23T15:44:29.965Z,4.00
2023-01-23T15:46:57.456Z,4.10
2023-01-23T15:49:26.250Z,3.90
2023-01-23T15:51:56.039Z,4.10
2023-01-23T15:54:33.776Z,3.90
2023-01-23T15:57:07.631Z,4.00
2023-01-23T15:59:35.528Z,4.30
2023-01-23T16:02:02.121Z,4.70
2023-01-23T16:04:28.640Z,3.80
2023-01-23T16:06:55.259Z,4.40
2023-01-23T16:09:38.362Z,5.20
2023-01-23T16:12:05.270Z,6.30
2023-01-23T16:14:31.986Z,6.60
2023-01-23T16:17:11.468Z,15.50
2023-01-23T16:19:42.760Z,10.80
2023-01-23T16:22:18.130Z,11.00
2023-01-23T16:24:44.766Z,9.20
2023-01-23T16:27:17.974Z,10.80
2023-01-23T16:29:45.457Z,9.50
2023-01-23T16:32:12.242Z,9.80
2023-01-23T16:34:38.922Z,12.00
2023-01-23T16:37:11.183Z,17.90
2023-01-23T16:39:37.837Z,20.10
2023-01-23T16:42:04.481Z,15.40
2023-01-23T16:44:31.011Z,12.20
2023-01-23T16:46:57.698Z,10.40
2023-01-23T16:49:24.403Z,8.80
2023-01-23T16:51:59.313Z,8.10
2023-01-23T16:54:26.118Z,7.50
2023-01-23T16:56:54.194Z,7.60
2023-01-23T16:59:28.196Z,7.10
2023-01-23T17:01:55.023Z,7.50
2023-01-23T17:04:22.019Z,7.20
2023-01-23T17:06:49.162Z,8.60
2023-01-23T17:09:16.324Z,8.10
2023-01-23T17:11:53.473Z,9.00
2023-01-23T17:14:26.576Z,7.90
2023-01-23T17:16:54.023Z,8.00
2023-01-23T17:19:30.868Z,10.30
2023-01-23T17:22:00.209Z,8.70
2023-01-23T17:24:26.950Z,8.70
2023-01-23T17:26:53.488Z,9.20
2023-01-23T17:29:20.367Z,10.20
2023-01-23T17:31:48.252Z,10.70
2023-01-23T17:34:29.228Z,10.30
2023-01-23T17:36:56.523Z,10.00
2023-01-23T17:39:23.344Z,10.10
2023-01-23T17:41:50.034Z,9.20
2023-01-23T17:44:16.689Z,8.90
2023-01-23T17:46:43.529Z,8.90
2023-01-23T17:49:30.839Z,9.80
2023-01-23T17:52:00.535Z,8.50
2023-01-23T17:54:27.385Z,10.00
2023-01-23T17:56:54.241Z,11.00
2023-01-23T17:59:21.174Z,10.20
2023-01-23T18:01:47.982Z,10.20
2023-01-23T18:04:16.273Z,10.70
2023-01-23T18:06:43.218Z,10.30
2023-01-23T18:09:09.994Z,10.10
2023-01-23T18:11:39.440Z,10.50
2023-01-23T18:14:27.914Z,10.20
2023-01-23T18:16:54.935Z,9.70
2023-01-23T18:19:24.397Z,9.90
2023-01-23T18:21:53.653Z,9.90
2023-01-23T18:24:26.924Z,10.30
2023-01-23T18:27:15.416Z,9.80
2023-01-23T18:30:01.673Z,11.20
2023-01-23T18:32:54.557Z,10.50
2023-01-23T18:35:30.687Z,8.20
2023-01-23T18:38:08.150Z,8.00
2023-01-23T18:41:02.026Z,8.10
2023-01-23T18:43:37.076Z,8.10
2023-01-23T18:46:04.475Z,8.30
2023-01-23T18:48:31.541Z,10.00
2023-01-23T18:51:15.145Z,9.40
2023-01-23T18:54:07.120Z,10.00
2023-01-23T18:56:42.575Z,9.00
2023-01-23T18:59:36.046Z,8.70
2023-01-23T19:02:23.881Z,9.40
2023-01-23T19:05:11.836Z,10.00
2023-01-23T19:07:38.474Z,10.00
2023-01-23T19:10:16.470Z,9.90
2023-01-23T19:13:20.956Z,9.60
2023-01-23T19:16:01.655Z,9.20
2023-01-23T19:18:45.421Z,9.40
2023-01-23T19:21:26.775Z,9.30
2023-01-23T19:23:53.307Z,10.20
2023-01-23T19:26:20.538Z,11.30
2023-01-23T19:28:47.411Z,13.90
2023-01-23T19:31:21.338Z,11.10
2023-01-23T19:33:48.959Z,11.80
2023-01-23T19:36:15.755Z,15.20
2023-01-23T19:38:42.593Z,10.80
2023-01-23T19:41:17.908Z,10.00
2023-01-23T19:43:48.318Z,11.00
2023-01-23T19:46:15.548Z,10.40
2023-01-23T19:48:42.209Z,10.70
2023-01-23T19:51:15.308Z,11.00
2023-01-23T19:53:42.257Z,10.80
2023-01-23T19:56:18.017Z,10.20
2023-01-23T19:58:45.577Z,12.30
2023-01-23T20:01:23.078Z,10.60
2023-01-23T20:03:49.747Z,10.50
2023-01-23T20:06:16.355Z,10.40
2023-01-23T20:08:43.023Z,9.50
2023-01-23T20:11:11.557Z,11.30
2023-01-23T20:13:39.510Z,10.60
2023-01-23T20:16:08.147Z,10.00
2023-01-23T20:18:37.655Z,10.80
2023-01-23T20:21:04.473Z,10.10
2023-01-23T20:23:31.818Z,10.30
2023-01-23T20:26:01.690Z,9.30
2023-01-23T20:28:29.558Z,9.90
2023-01-23T20:30:57.090Z,9.40
2023-01-23T20:33:25.039Z,9.40
2023-01-23T20:35:53.119Z,9.40
2023-01-23T20:38:21.365Z,9.40
2023-01-23T20:40:48.849Z,9.90
2023-01-23T20:43:16.719Z,9.70
2023-01-23T20:45:51.348Z,9.80
2023-01-23T20:48:19.832Z,10.60
2023-01-23T20:50:52.727Z,10.80
2023-01-23T20:53:19.438Z,11.90
2023-01-23T20:55:45.972Z,9.50
2023-01-23T20:58:12.488Z,9.80
2023-01-23T21:00:38.973Z,11.50
2023-01-23T21:03:05.525Z,10.10
2023-01-23T21:05:32.071Z,10.50
2023-01-23T21:07:58.606Z,10.20
2023-01-23T21:10:25.306Z,10.10
2023-01-23T21:12:51.842Z,10.00
2023-01-23T21:15:18.361Z,10.10
2023-01-23T21:17:44.912Z,10.70
2023-01-23T21:20:11.638Z,10.00
2023-01-23T21:22:38.138Z,8.60
2023-01-23T21:25:05.135Z,10.10
2023-01-23T21:27:31.657Z,11.20
2023-01-23T21:29:58.193Z,10.90
2023-01-23T21:32:24.712Z,10.30
2023-01-23T21:34:51.192Z,11.50
2023-01-23T21:37:17.749Z,9.40
2023-01-23T21:39:44.392Z,9.80
2023-01-23T21:42:10.976Z,11.10
2023-01-23T21:44:37.515Z,10.10
2023-01-23T21:47:04.066Z,10.50
2023-01-23T21:49:30.563Z,9.90
2023-01-23T21:51:57.039Z,10.70
2023-01-23T21:54:23.566Z,9.90
2023-01-23T21:56:50.030Z,10.30
2023-01-23T21:59:16.503Z,11.20
2023-01-23T22:01:43.114Z,10.50
2023-01-23T22:04:15.024Z,11.20
2023-01-23T22:06:43.480Z,10.80
2023-01-23T22:09:14.458Z,11.60
2023-01-23T22:11:41.015Z,11.60
2023-01-23T22:14:07.533Z,10.40
2023-01-23T22:16:47.955Z,11.80
2023-01-23T22:19:16.750Z,12.10
2023-01-23T22:21:43.306Z,11.60
2023-01-23T22:24:09.865Z,11.90
2023-01-23T22:26:37.231Z,10.40
2023-01-23T22:29:03.871Z,11.40
2023-01-23T22:31:30.702Z,10.60
2023-01-23T22:33:57.353Z,10.70
2023-01-23T22:36:23.880Z,10.10
2023-01-23T22:38:54.128Z,10.50
2023-01-23T22:41:21.171Z,11.30
2023-01-23T22:43:52.886Z,12.80
2023-01-23T22:46:19.375Z,12.20
2023-01-23T22:48:45.830Z,12.70
2023-01-23T22:51:23.184Z,13.10
2023-01-23T22:53:51.238Z,12.90
2023-01-23T22:56:17.776Z,14.70
2023-01-23T22:58:45.436Z,13.90
2023-01-23T23:01:12.414Z,16.90
2023-01-23T23:03:39.036Z,15.40
2023-01-23T23:06:07.923Z,16.10
2023-01-23T23:08:35.089Z,16.50
2023-01-23T23:11:11.818Z,14.60
2023-01-23T23:13:40.065Z,14.50
2023-01-23T23:16:11.091Z,15.90
2023-01-23T23:18:39.282Z,13.00
2023-01-23T23:21:09.125Z,15.80
2023-01-23T23:23:36.032Z,15.00
2023-01-23T23:26:03.452Z,14.70
2023-01-23T23:28:30.092Z,14.20
2023-01-23T23:30:56.669Z,15.10
2023-01-23T23:33:23.321Z,16.10
2023-01-23T23:35:49.978Z,15.80
2023-01-23T23:38:16.877Z,16.10
2023-01-23T23:40:43.475Z,15.70
2023-01-23T23:43:10.956Z,16.80
2023-01-23T23:45:37.545Z,17.10
2023-01-23T23:48:04.308Z,16.00
2023-01-23T23:50:32.759Z,15.90
2023-01-23T23:52:59.275Z,16.60
2023-01-23T23:55:25.793Z,16.00
2023-01-23T23:57:52.250Z,15.70
